New Smyrna Beach, Florida
Current Conditions -  °F | °C
As of 10:53 AM on Saturday 25 Oct 2014 (Local Time) from KDAB Reporting Station
Few Clouds Few Clouds  
Wind Chill: 74°   Ceiling: Unl
Heat Index: 74°   Visibility: 10mi
Dew Point: 57°   Wind: 9mph
Humidity: 55%   Direction: 330°NNW
Pressure: 30.01"   Gusts: NA
Location:  29.03°N, 80.92°W
Report Text: KDAB 251453Z 33008KT 10SM FEW035 23/14 A3001 RMK AO2 SLP160 T02330139 51009
Loading
Personal Weather Stations






























Interactive Weather Map
Tropical Storm Tracking
New forecast layout! Learn more

10-Day Weather Forecast

Advertisements
Track Severe Weather on mobile